createdAt,value
2018-03-06T21:26:01.725Z,7.82
2018-03-06T21:27:01.676Z,7.88
2018-03-06T21:28:01.649Z,7.80
2018-03-06T21:29:01.625Z,7.82
2018-03-06T21:30:01.599Z,7.82
2018-03-06T21:31:01.592Z,7.79
2018-03-06T21:32:01.549Z,7.79
2018-03-06T21:33:01.529Z,7.87
2018-03-06T21:34:01.515Z,7.87
2018-03-06T21:35:01.480Z,7.82
2018-03-06T21:36:02.412Z,7.79
2018-03-06T21:37:01.442Z,7.75
2018-03-06T21:38:01.408Z,7.69
2018-03-06T21:39:01.394Z,7.79
2018-03-06T21:40:01.361Z,7.87
2018-03-06T21:41:01.345Z,7.80
2018-03-06T21:42:01.323Z,7.83
2018-03-06T21:43:01.301Z,7.76
2018-03-06T21:44:01.275Z,7.87
2018-03-06T21:45:01.283Z,7.79
2018-03-06T21:46:01.222Z,7.66
2018-03-06T21:47:01.204Z,7.69
2018-03-06T21:48:01.179Z,7.67
2018-03-06T21:49:01.154Z,7.50
2018-03-06T21:50:01.133Z,7.51
2018-03-06T21:51:01.123Z,7.54
2018-03-06T21:52:01.088Z,7.43
2018-03-06T21:53:01.079Z,7.50
2018-03-06T21:54:01.036Z,7.47
2018-03-06T21:55:01.003Z,7.47
2018-03-06T21:56:00.977Z,7.50
2018-03-06T21:57:00.956Z,7.48
2018-03-06T21:58:00.939Z,7.45
2018-03-06T21:59:00.915Z,7.47
2018-03-06T22:00:00.881Z,7.42
2018-03-06T22:01:00.867Z,7.32
2018-03-06T22:02:00.834Z,7.33
2018-03-06T22:03:00.814Z,7.28
2018-03-06T22:04:00.783Z,7.25
2018-03-06T22:05:00.762Z,7.18
2018-03-06T22:06:00.764Z,7.20
2018-03-06T22:07:00.713Z,7.07
2018-03-06T22:08:00.698Z,7.03
2018-03-06T22:09:00.666Z,7.02
2018-03-06T22:10:00.641Z,6.93
2018-03-06T22:11:00.617Z,6.93
2018-03-06T22:12:00.592Z,6.85
2018-03-06T22:13:00.567Z,6.77
2018-03-06T22:14:00.562Z,6.85
2018-03-06T22:15:00.527Z,6.82
2018-03-06T22:16:00.517Z,6.89
2018-03-06T22:17:00.475Z,6.75
2018-03-06T22:18:00.462Z,6.72
2018-03-06T22:19:00.424Z,6.75
2018-03-06T22:20:00.498Z,6.60
2018-03-06T22:21:00.377Z,6.63
2018-03-06T22:22:00.364Z,6.62
2018-03-06T22:23:00.329Z,6.60
2018-03-06T22:24:00.324Z,6.57
2018-03-06T22:25:00.282Z,6.60
2018-03-06T22:26:00.255Z,6.64
2018-03-06T22:27:00.237Z,6.66
2018-03-06T22:28:00.211Z,6.64
2018-03-06T22:29:00.240Z,6.64
2018-03-06T22:30:00.273Z,6.70
2018-03-06T22:31:00.249Z,6.74
2018-03-06T22:32:00.192Z,6.72
2018-03-06T22:33:00.098Z,6.70
2018-03-06T22:34:00.064Z,6.72
2018-03-06T22:35:00.038Z,6.75
2018-03-06T22:36:00.031Z,6.69
2018-03-06T22:37:00.079Z,6.74
2018-03-06T22:38:00.034Z,6.72
2018-03-06T22:38:59.999Z,6.69
2018-03-06T22:39:59.917Z,6.70
2018-03-06T22:40:59.897Z,6.67
2018-03-06T22:41:59.871Z,6.74
2018-03-06T22:42:59.843Z,6.70
2018-03-06T22:43:59.820Z,6.74
2018-03-06T22:44:59.811Z,6.70
2018-03-06T22:45:59.771Z,6.78
2018-03-06T22:46:59.764Z,6.72
2018-03-06T22:47:59.727Z,6.72
2018-03-06T22:48:59.700Z,6.77
2018-03-06T22:49:59.686Z,6.74
2018-03-06T22:50:59.664Z,6.74
2018-03-06T22:51:59.638Z,6.77
2018-03-06T22:52:59.602Z,6.82
2018-03-06T22:53:59.583Z,6.81
2018-03-06T22:54:59.552Z,6.92
2018-03-06T22:55:59.532Z,6.85
2018-03-06T22:56:59.519Z,6.92
2018-03-06T22:57:59.483Z,6.92
2018-03-06T22:58:59.473Z,6.95
2018-03-06T22:59:59.449Z,6.95
2018-03-06T23:00:59.420Z,6.95
2018-03-06T23:01:59.396Z,6.93
2018-03-06T23:02:59.361Z,6.93
2018-03-06T23:03:59.348Z,6.93
2018-03-06T23:04:59.311Z,7.02
2018-03-06T23:05:59.302Z,6.89
2018-03-06T23:06:59.276Z,7.07
2018-03-06T23:07:59.238Z,7.00
2018-03-06T23:08:59.220Z,6.99
2018-03-06T23:09:59.203Z,6.97
2018-03-06T23:10:59.167Z,6.95
2018-03-06T23:11:59.148Z,6.93
2018-03-06T23:12:59.120Z,6.95
2018-03-06T23:13:59.110Z,7.03
2018-03-06T23:14:59.081Z,6.96
2018-03-06T23:15:59.059Z,6.95
2018-03-06T23:16:59.020Z,6.95
2018-03-06T23:17:58.997Z,6.99
2018-03-06T23:18:58.984Z,6.96
2018-03-06T23:19:58.970Z,7.00
2018-03-06T23:20:58.923Z,6.97
2018-03-06T23:21:58.902Z,7.00
2018-03-06T23:22:58.875Z,6.97
2018-03-06T23:23:58.850Z,6.89
2018-03-06T23:24:58.834Z,7.02
2018-03-06T23:25:58.804Z,6.92
2018-03-06T23:26:58.778Z,6.95
2018-03-06T23:27:58.766Z,7.03
2018-03-06T23:28:58.741Z,7.03
2018-03-06T23:29:58.725Z,7.06
2018-03-06T23:30:58.694Z,7.17
2018-03-06T23:31:58.656Z,7.20
2018-03-06T23:32:58.638Z,7.14
2018-03-06T23:33:58.625Z,7.17
2018-03-06T23:34:58.590Z,7.14
2018-03-06T23:35:58.561Z,7.20
2018-03-06T23:36:58.540Z,7.21
2018-03-06T23:37:58.514Z,7.18
2018-03-06T23:38:58.548Z,7.14
2018-03-06T23:39:58.465Z,7.15
2018-03-06T23:40:58.450Z,7.21
2018-03-06T23:41:58.416Z,7.07
2018-03-06T23:42:58.404Z,7.15
2018-03-06T23:43:58.383Z,7.10
2018-03-06T23:44:58.344Z,7.14
2018-03-06T23:45:58.323Z,7.05
2018-03-06T23:46:58.302Z,7.13
2018-03-06T23:47:58.282Z,7.10
2018-03-06T23:48:58.259Z,7.10
2018-03-06T23:49:58.223Z,7.06
2018-03-06T23:50:58.202Z,7.10
2018-03-06T23:51:58.173Z,7.10
2018-03-06T23:52:58.161Z,7.13
2018-03-06T23:53:58.127Z,7.06
2018-03-06T23:54:58.104Z,7.07
2018-03-06T23:55:58.088Z,7.10
2018-03-06T23:56:58.054Z,7.05
2018-03-06T23:57:58.039Z,7.17
2018-03-06T23:58:58.016Z,7.15
2018-03-06T23:59:57.985Z,7.20
